Time;durP1;ratioP1;P1;durP2;ratioP2;P2;SDS_P1;SDS_P2;PMS_P1;PMS_P2;Temp;Humidity;BMP_temperature;BMP_pressure;BME280_temperature;BME280_humidity;BME280_pressure;Samples;Min_cycle;Max_cycle;Signal;HPM_P1;HPM_P2
2023/08/20 00:01:27;;;;;;;8.93;3.95;;;;;;;22.24;100.00;101021.78;8406086;28;20044;-63
2023/08/20 00:05:28;;;;;;;8.40;4.03;;;;;;;22.15;100.00;101011.97;8409239;28;20051;-63
2023/08/20 00:09:29;;;;;;;7.85;4.40;;;;;;;21.88;100.00;101026.63;8405066;28;20040;-62
2023/08/20 00:13:30;;;;;;;9.02;4.85;;;;;;;21.88;100.00;101025.75;8406020;28;20505;-63
2023/08/20 00:17:32;;;;;;;6.53;4.43;;;;;;;21.90;100.00;101035.53;8409475;28;20411;-63
2023/08/20 00:21:33;;;;;;;9.73;4.45;;;;;;;22.05;100.00;101050.03;8406988;28;20362;-63
2023/08/20 00:25:34;;;;;;;10.43;4.72;;;;;;;22.14;100.00;101048.81;8405224;28;20041;-61
2023/08/20 00:29:34;;;;;;;9.82;5.10;;;;;;;22.13;100.00;101052.63;8405964;28;20177;-61
2023/08/20 00:33:35;;;;;;;7.63;4.13;;;;;;;22.14;100.00;101051.56;8410040;28;20123;-61
2023/08/20 00:37:35;;;;;;;5.85;4.50;;;;;;;22.16;100.00;101060.50;8405083;28;20039;-61
2023/08/20 00:41:36;;;;;;;8.65;4.45;;;;;;;22.19;100.00;101054.56;8404795;28;20037;-61
2023/08/20 00:45:36;;;;;;;6.13;4.57;;;;;;;22.27;100.00;101043.41;8411910;28;20037;-63
2023/08/20 00:49:37;;;;;;;10.55;5.60;;;;;;;22.13;100.00;101055.38;8407278;28;20055;-64
2023/08/20 00:53:38;;;;;;;7.47;4.80;;;;;;;22.19;100.00;101059.22;8403613;28;20096;-63
2023/08/20 00:57:40;;;;;;;8.75;5.18;;;;;;;22.07;100.00;101056.19;8402287;28;20040;-61
2023/08/20 01:01:40;;;;;;;6.00;3.95;;;;;;;22.20;100.00;101049.94;8406954;28;20096;-61
2023/08/20 01:05:50;;;;;;;6.85;3.95;;;;;;;22.21;100.00;101033.19;8409076;28;20039;-61
2023/08/20 01:10:04;;;;;;;8.43;3.60;;;;;;;21.90;100.00;101026.41;8405503;28;20032;-61
2023/08/20 01:14:15;;;;;;;5.65;3.90;;;;;;;21.76;100.00;101021.84;8404391;28;20889;-61
2023/08/20 01:18:16;;;;;;;13.27;5.93;;;;;;;21.68;100.00;101024.75;8405333;28;20046;-61
2023/08/20 01:27:28;;;;;;;8.82;6.53;;;;;;;21.79;100.00;101025.06;8404011;27;20405;-60
2023/08/20 01:31:28;;;;;;;10.93;7.35;;;;;;;21.77;100.00;101029.91;8399618;27;20040;-60
2023/08/20 01:35:29;;;;;;;10.07;6.38;;;;;;;21.76;100.00;101025.47;8409758;27;20046;-60
2023/08/20 01:39:36;;;;;;;12.57;6.72;;;;;;;21.71;100.00;101025.19;8400599;28;20044;-61
2023/08/20 01:43:37;;;;;;;11.38;6.88;;;;;;;21.63;100.00;101030.00;8403859;28;20044;-60
2023/08/20 01:47:37;;;;;;;15.55;7.00;;;;;;;21.71;100.00;101041.69;8394740;28;20491;-60
2023/08/20 01:51:38;;;;;;;11.82;7.00;;;;;;;21.67;100.00;101045.91;8368616;28;20037;-60
2023/08/20 01:55:39;;;;;;;11.55;5.43;;;;;;;21.66;100.00;101038.72;8368357;28;20783;-60
2023/08/20 01:59:39;;;;;;;7.72;4.65;;;;;;;21.35;100.00;101046.47;8367036;28;20079;-60
2023/08/20 02:03:40;;;;;;;6.07;4.38;;;;;;;21.02;100.00;101045.28;8371700;28;20037;-60
2023/08/20 02:07:40;;;;;;;8.57;4.00;;;;;;;21.07;100.00;101048.28;8362026;28;20041;-60
2023/08/20 02:11:41;;;;;;;12.05;6.38;;;;;;;20.97;100.00;101036.75;8367097;28;20398;-60
2023/08/20 02:15:41;;;;;;;13.30;6.35;;;;;;;21.05;100.00;101044.91;8369439;28;20498;-60
2023/08/20 02:19:42;;;;;;;7.13;5.93;;;;;;;21.00;100.00;101051.00;8368835;28;20037;-60
2023/08/20 02:23:42;;;;;;;11.15;6.15;;;;;;;21.00;100.00;101047.38;8366384;28;20124;-60
2023/08/20 02:27:43;;;;;;;14.35;6.30;;;;;;;20.93;100.00;101054.69;8368688;28;20049;-60
2023/08/20 02:31:45;;;;;;;9.45;7.22;;;;;;;20.94;100.00;101064.63;8369450;28;20506;-60
2023/08/20 02:35:46;;;;;;;8.43;5.85;;;;;;;21.05;100.00;101073.22;8356342;28;20404;-60
2023/08/20 02:39:46;;;;;;;18.58;6.80;;;;;;;21.08;100.00;101077.50;8342860;28;20487;-60
2023/08/20 02:43:47;;;;;;;10.80;6.03;;;;;;;21.10;100.00;101081.75;8345656;28;20044;-60
2023/08/20 02:47:48;;;;;;;11.05;6.72;;;;;;;21.07;100.00;101067.53;8344879;28;20566;-62
2023/08/20 02:51:49;;;;;;;10.63;6.30;;;;;;;21.10;100.00;101078.16;8345055;28;20048;-61
2023/08/20 02:55:49;;;;;;;12.38;5.78;;;;;;;21.01;100.00;101087.56;8344732;28;20100;-62
2023/08/20 02:59:50;;;;;;;10.50;5.68;;;;;;;20.98;100.00;101085.22;8344429;28;20063;-63
2023/08/20 03:03:50;;;;;;;9.98;5.78;;;;;;;21.00;100.00;101074.88;8344270;28;20407;-63
2023/08/20 03:07:51;;;;;;;8.23;5.80;;;;;;;21.10;100.00;101080.91;8341675;28;20037;-58
2023/08/20 03:11:52;;;;;;;11.65;6.20;;;;;;;21.22;100.00;101076.59;8342857;28;20495;-57
2023/08/20 03:15:52;;;;;;;11.27;6.07;;;;;;;21.06;100.00;101085.09;8343894;28;20120;-57
2023/08/20 03:19:55;;;;;;;8.27;5.45;;;;;;;21.30;100.00;101076.47;8345622;28;20403;-56
2023/08/20 03:23:56;;;;;;;7.18;5.20;;;;;;;21.05;100.00;101083.41;8347238;28;20043;-57
2023/08/20 03:27:56;;;;;;;12.63;6.20;;;;;;;21.20;100.00;101093.28;8343723;28;20041;-58
2023/08/20 03:31:58;;;;;;;8.45;5.32;;;;;;;21.19;100.00;101096.22;8344110;28;20042;-58
2023/08/20 03:35:58;;;;;;;11.75;5.10;;;;;;;21.24;100.00;101113.00;8342708;28;20503;-58
2023/08/20 03:39:59;;;;;;;8.10;5.88;;;;;;;21.14;100.00;101101.47;8345007;28;20053;-58
2023/08/20 03:43:59;;;;;;;10.85;5.68;;;;;;;21.06;100.00;101109.84;8342211;28;20049;-57
2023/08/20 03:48:00;;;;;;;10.50;7.05;;;;;;;21.04;100.00;101109.16;8344789;28;20044;-57
2023/08/20 03:52:01;;;;;;;10.63;7.30;;;;;;;21.14;100.00;101113.31;8341364;28;20032;-58
2023/08/20 03:56:03;;;;;;;17.95;7.45;;;;;;;21.15;100.00;101114.19;8339998;28;20052;-62
2023/08/20 04:00:04;;;;;;;19.15;8.52;;;;;;;21.25;100.00;101122.97;8345562;28;20037;-62
2023/08/20 04:04:27;;;;;;;16.60;9.02;;;;;;;21.19;100.00;101116.34;8390976;27;20512;-63
2023/08/20 04:08:29;;;;;;;17.55;9.00;;;;;;;21.25;100.00;101123.81;8385573;28;20072;-62
2023/08/20 04:12:29;;;;;;;14.23;8.85;;;;;;;21.35;100.00;101120.78;8382230;27;20494;-62
2023/08/20 04:16:30;;;;;;;19.88;10.43;;;;;;;21.41;100.00;101103.47;8384584;27;20498;-62
2023/08/20 04:20:32;;;;;;;19.70;9.50;;;;;;;21.50;100.00;101137.22;8387218;27;20410;-62
2023/08/20 04:24:33;;;;;;;20.50;10.63;;;;;;;21.33;100.00;101125.59;8384659;28;20357;-62
2023/08/20 04:28:34;;;;;;;19.67;9.40;;;;;;;21.36;100.00;101133.47;8383094;27;20062;-60
2023/08/20 04:32:34;;;;;;;18.38;11.25;;;;;;;21.40;100.00;101125.69;8382984;27;20063;-62
2023/08/20 04:36:35;;;;;;;24.92;12.77;;;;;;;21.48;100.00;101118.16;8368932;28;20064;-62
2023/08/20 04:40:35;;;;;;;26.42;14.07;;;;;;;21.58;100.00;101126.91;8369108;28;20044;-63
2023/08/20 04:44:36;;;;;;;22.92;12.13;;;;;;;21.66;100.00;101143.31;8376702;28;20489;-62
2023/08/20 04:48:37;;;;;;;22.23;12.15;;;;;;;21.61;100.00;101140.28;8379941;28;20032;-62
2023/08/20 04:52:37;;;;;;;25.55;12.82;;;;;;;21.70;100.00;101136.34;8380302;27;20040;-62
2023/08/20 04:56:39;;;;;;;20.90;11.27;;;;;;;21.77;100.00;101139.22;8384243;27;20064;-62
2023/08/20 05:00:40;;;;;;;30.42;13.45;;;;;;;21.79;100.00;101143.47;8378941;28;20044;-62
2023/08/20 05:04:45;;;;;;;24.42;12.40;;;;;;;21.80;100.00;101139.66;8383852;28;20047;-62
2023/08/20 05:08:45;;;;;;;19.13;12.48;;;;;;;21.83;100.00;101150.25;8381661;28;20036;-60
2023/08/20 05:12:45;;;;;;;26.35;12.18;;;;;;;21.89;100.00;101152.22;8380264;28;20417;-60
2023/08/20 05:16:46;;;;;;;25.73;12.35;;;;;;;21.81;100.00;101146.88;8360988;28;20494;-60
2023/08/20 05:20:47;;;;;;;19.50;11.55;;;;;;;21.75;100.00;101152.31;8361426;28;20072;-60
2023/08/20 05:24:48;;;;;;;24.70;12.20;;;;;;;21.77;100.00;101144.72;8359741;28;20045;-60
2023/08/20 05:28:49;;;;;;;28.95;13.73;;;;;;;21.92;100.00;101154.59;8358082;28;20041;-60
2023/08/20 05:32:49;;;;;;;23.48;11.65;;;;;;;22.07;100.00;101146.22;8357900;28;20047;-60
2023/08/20 05:36:49;;;;;;;21.55;11.77;;;;;;;22.26;100.00;101151.88;8351384;28;20383;-60
2023/08/20 05:40:50;;;;;;;19.77;12.13;;;;;;;22.47;100.00;101154.59;8361125;28;20041;-60
2023/08/20 05:44:51;;;;;;;20.85;12.30;;;;;;;22.63;100.00;101159.81;8357674;28;20057;-60
2023/08/20 05:48:56;;;;;;;21.48;11.48;;;;;;;22.78;100.00;101168.81;8361733;28;20051;-60
2023/08/20 05:52:57;;;;;;;24.42;11.93;;;;;;;22.91;100.00;101168.88;8362451;28;20507;-60
2023/08/20 05:56:58;;;;;;;19.58;11.38;;;;;;;22.84;100.00;101176.25;8357753;28;20514;-60
2023/08/20 06:00:59;;;;;;;19.70;10.63;;;;;;;22.96;100.00;101174.63;8354737;28;20558;-60
2023/08/20 06:04:59;;;;;;;21.65;10.93;;;;;;;23.20;100.00;101167.72;8358035;28;20049;-60
2023/08/20 06:09:00;;;;;;;19.05;11.70;;;;;;;23.26;100.00;101171.63;8357354;28;20383;-60
2023/08/20 06:13:00;;;;;;;22.27;12.18;;;;;;;23.56;100.00;101175.72;8360828;28;20033;-60
2023/08/20 06:17:01;;;;;;;23.08;11.30;;;;;;;23.64;100.00;101170.88;8357813;28;20167;-63
2023/08/20 06:21:01;;;;;;;20.70;10.50;;;;;;;23.78;100.00;101172.56;8360784;28;20041;-62
2023/08/20 06:25:02;;;;;;;21.70;11.10;;;;;;;23.75;100.00;101173.00;8361546;28;20138;-62
2023/08/20 06:29:03;;;;;;;19.15;11.95;;;;;;;23.88;100.00;101169.41;8358956;28;20044;-61
2023/08/20 06:33:03;;;;;;;22.33;10.75;;;;;;;23.80;100.00;101176.00;8358003;28;20044;-62
2023/08/20 06:37:04;;;;;;;22.73;11.82;;;;;;;23.69;100.00;101173.84;8359064;28;20043;-62
2023/08/20 06:41:04;;;;;;;24.35;11.68;;;;;;;23.72;100.00;101183.63;8364825;28;20052;-63
2023/08/20 06:45:06;;;;;;;23.67;11.80;;;;;;;23.98;100.00;101194.75;8357315;28;20150;-63
2023/08/20 06:49:06;;;;;;;21.02;11.05;;;;;;;24.18;100.00;101185.38;8356359;28;20044;-62
2023/08/20 06:53:07;;;;;;;17.85;10.77;;;;;;;24.39;100.00;101187.06;8356549;28;20068;-62
2023/08/20 06:57:07;;;;;;;25.25;11.23;;;;;;;24.52;100.00;101192.63;8358045;28;20076;-63
2023/08/20 07:01:08;;;;;;;17.65;10.25;;;;;;;24.40;100.00;101195.16;8354145;28;20064;-62
2023/08/20 07:05:09;;;;;;;27.55;12.35;;;;;;;24.41;100.00;101190.50;8350224;28;20090;-61
2023/08/20 07:09:09;;;;;;;30.02;12.30;;;;;;;24.36;100.00;101193.03;8350976;28;20556;-63
2023/08/20 07:13:10;;;;;;;22.27;12.15;;;;;;;24.28;100.00;101191.34;8369465;28;20029;-62
2023/08/20 07:17:10;;;;;;;19.35;10.27;;;;;;;24.44;100.00;101179.88;8371747;28;20067;-61
2023/08/20 07:21:11;;;;;;;30.38;12.13;;;;;;;24.70;100.00;101184.53;8370316;28;20048;-62
2023/08/20 07:25:11;;;;;;;21.90;9.60;;;;;;;24.79;100.00;101194.28;8371814;28;20037;-62
2023/08/20 07:29:12;;;;;;;19.92;9.90;;;;;;;25.21;100.00;101192.84;8370468;28;20070;-58
2023/08/20 07:33:12;;;;;;;18.83;9.77;;;;;;;25.29;97.41;101190.72;8355427;28;20491;-59
2023/08/20 07:37:12;;;;;;;22.57;10.07;;;;;;;25.31;97.14;101196.03;8356106;28;20476;-59
2023/08/20 07:41:13;;;;;;;20.05;10.05;;;;;;;25.57;95.37;101187.59;8357242;28;20940;-60
2023/08/20 07:45:13;;;;;;;19.25;11.07;;;;;;;25.39;95.11;101187.50;8354210;28;20499;-58
2023/08/20 07:49:14;;;;;;;23.38;12.50;;;;;;;25.90;90.23;101200.19;8354563;28;20037;-60
2023/08/20 07:53:14;;;;;;;22.25;11.25;;;;;;;26.06;92.31;101199.69;8355179;28;20144;-60
2023/08/20 07:57:15;;;;;;;17.77;10.68;;;;;;;26.05;90.63;101191.59;8354763;28;20037;-63
2023/08/20 08:01:16;;;;;;;20.90;9.68;;;;;;;25.90;91.82;101199.34;8354137;28;20128;-63
2023/08/20 08:05:17;;;;;;;20.00;9.98;;;;;;;25.80;93.01;101204.53;8351861;28;20033;-63
2023/08/20 08:09:21;;;;;;;18.63;10.43;;;;;;;26.26;91.96;101200.34;8355777;28;20048;-63
2023/08/20 08:13:22;;;;;;;15.35;9.75;;;;;;;26.35;90.47;101198.16;8356922;28;20036;-62
2023/08/20 08:17:23;;;;;;;18.95;10.27;;;;;;;26.50;89.13;101207.00;8350019;28;20094;-63
2023/08/20 08:21:23;;;;;;;20.17;11.05;;;;;;;26.64;88.36;101212.22;8356225;28;20128;-63
2023/08/20 08:25:25;;;;;;;20.65;9.73;;;;;;;26.92;89.38;101210.88;8356161;28;20043;-62
2023/08/20 08:29:25;;;;;;;18.63;9.15;;;;;;;27.07;88.15;101208.56;8356384;28;20494;-63
2023/08/20 08:33:26;;;;;;;16.33;9.95;;;;;;;27.06;86.53;101206.84;8353118;28;20401;-63
2023/08/20 08:37:26;;;;;;;17.58;10.50;;;;;;;27.17;85.98;101208.88;8351806;28;20033;-59
2023/08/20 08:41:29;;;;;;;16.67;10.38;;;;;;;27.10;86.93;101202.50;8353348;28;20606;-58
2023/08/20 08:45:30;;;;;;;18.63;12.45;;;;;;;27.27;85.54;101198.94;8353922;28;21137;-59
2023/08/20 08:49:34;;;;;;;20.95;11.60;;;;;;;27.29;84.88;101207.03;8359535;28;20693;-59
2023/08/20 08:53:35;;;;;;;;;;;;;;;27.97;88.57;101200.09;8362042;28;20407;-58
2023/08/20 08:57:36;;;;;;;16.05;10.68;;;;;;;27.92;83.76;101199.97;8360826;28;19922;-59
2023/08/20 09:01:39;;;;;;;19.45;11.23;;;;;;;28.20;80.12;101216.84;8358286;28;20060;-58
2023/08/20 09:05:49;;;;;;;14.40;9.88;;;;;;;28.23;80.54;101199.66;8357795;28;20570;-58
2023/08/20 09:09:49;;;;;;;13.93;9.20;;;;;;;28.24;79.90;101204.16;8360459;28;20037;-59
2023/08/20 09:13:50;;;;;;;14.63;10.00;;;;;;;28.10;79.76;101211.03;8358673;28;20071;-60
2023/08/20 09:17:50;;;;;;;18.75;11.25;;;;;;;28.29;79.50;101226.53;8361040;28;20079;-58
2023/08/20 09:21:53;;;;;;;15.80;10.23;;;;;;;28.04;79.48;101217.53;8359010;28;20079;-59
2023/08/20 09:25:53;;;;;;;15.15;9.35;;;;;;;28.41;80.87;101207.91;8361225;28;20383;-58
2023/08/20 09:29:55;;;;;;;16.00;9.25;;;;;;;28.86;79.09;101206.28;8358292;28;20041;-59
2023/08/20 09:33:57;;;;;;;15.55;8.90;;;;;;;28.81;76.27;101202.53;8357372;28;20043;-59
2023/08/20 09:38:00;;;;;;;17.23;8.93;;;;;;;28.74;78.47;101213.78;8358525;28;20499;-58
2023/08/20 09:42:02;;;;;;;12.20;7.57;;;;;;;29.27;76.30;101213.63;8361142;28;20042;-58
2023/08/20 09:46:04;;;;;;;17.23;9.23;;;;;;;29.53;73.27;101219.50;8360303;28;20112;-61
2023/08/20 09:50:10;;;;;;;11.40;7.22;;;;;;;30.63;71.34;101220.75;8360686;28;20464;-61
2023/08/20 09:54:23;;;;;;;12.65;7.68;;;;;;;32.32;65.95;101226.03;8357437;28;20113;-60
2023/08/20 09:58:25;;;;;;;8.07;6.18;;;;;;;33.69;62.19;101224.75;8357624;28;20110;-61
2023/08/20 10:02:26;;;;;;;8.80;5.88;;;;;;;35.23;57.47;101232.72;8359738;28;20033;-60
2023/08/20 10:06:27;;;;;;;10.57;6.88;;;;;;;34.88;56.47;101227.19;8356781;28;20044;-61
2023/08/20 10:10:29;;;;;;;11.98;7.88;;;;;;;34.77;57.89;101225.47;8359722;28;20052;-61
2023/08/20 10:14:29;;;;;;;12.93;7.28;;;;;;;34.90;58.69;101227.72;8361315;28;20040;-61
2023/08/20 10:18:30;;;;;;;8.70;6.30;;;;;;;35.49;56.70;101234.31;8357907;28;20128;-61
2023/08/20 10:22:39;;;;;;;12.75;6.68;;;;;;;34.43;57.66;101232.81;8365787;28;20051;-61
2023/08/20 10:26:40;;;;;;;9.70;7.57;;;;;;;33.90;58.24;101232.13;8374446;28;20059;-60
2023/08/20 10:31:16;;;;;;;14.65;8.75;;;;;;;35.60;56.70;101219.94;8369455;28;20099;-60
2023/08/20 10:35:22;;;;;;;10.40;7.95;;;;;;;37.14;52.78;101227.50;8355711;28;20461;-60
2023/08/20 10:39:24;;;;;;;10.00;7.15;;;;;;;37.00;52.76;101226.53;8357143;28;20336;-60
2023/08/20 10:43:35;;;;;;;13.63;8.45;;;;;;;35.43;55.00;101224.25;8366752;28;20086;-61
2023/08/20 10:47:44;;;;;;;13.93;7.65;;;;;;;35.76;53.69;101222.69;8357547;28;20075;-61
2023/08/20 10:51:47;;;;;;;14.13;9.13;;;;;;;35.75;52.59;101224.66;8350674;28;20598;-61
2023/08/20 10:55:48;;;;;;;13.10;8.90;;;;;;;36.04;51.83;101228.44;8348920;28;20032;-61
2023/08/20 10:59:58;;;;;;;11.63;8.18;;;;;;;37.03;52.73;101214.66;8350009;28;20135;-59
2023/08/20 11:04:04;;;;;;;13.27;9.05;;;;;;;37.75;49.09;101221.16;8350568;28;20068;-59
2023/08/20 11:08:07;;;;;;;11.70;8.68;;;;;;;36.68;50.33;101217.78;8341004;28;20037;-58
2023/08/20 11:12:08;;;;;;;12.35;8.70;;;;;;;36.76;49.00;101224.81;8346378;28;20049;-59
2023/08/20 11:16:09;;;;;;;9.55;7.55;;;;;;;37.19;51.30;101212.50;8350109;28;20036;-59
2023/08/20 11:20:11;;;;;;;9.00;7.07;;;;;;;37.25;49.46;101206.53;8349804;28;20039;-60
2023/08/20 11:24:12;;;;;;;11.07;7.50;;;;;;;36.81;49.52;101211.53;8353382;28;20082;-58
2023/08/20 11:28:13;;;;;;;8.75;5.90;;;;;;;38.16;49.55;101210.97;8345866;28;20057;-59
2023/08/20 11:32:14;;;;;;;9.00;5.70;;;;;;;37.26;49.15;101205.38;8346517;28;20075;-61
2023/08/20 11:36:16;;;;;;;8.00;6.55;;;;;;;37.90;50.28;101209.66;8350676;28;20048;-59
2023/08/20 11:40:20;;;;;;;7.88;5.47;;;;;;;38.12;48.07;101205.09;8344423;28;20033;-58
2023/08/20 11:44:22;;;;;;;6.30;4.90;;;;;;;37.43;47.95;101197.28;8345597;28;20067;-59
2023/08/20 11:48:22;;;;;;;4.97;4.10;;;;;;;37.76;47.05;101195.44;8348424;28;20418;-60
2023/08/20 11:52:23;;;;;;;5.00;4.57;;;;;;;38.96;47.35;101186.94;8346742;28;20068;-60
2023/08/20 11:56:23;;;;;;;5.32;4.72;;;;;;;34.66;50.26;101192.88;8342900;28;20040;-61
2023/08/20 12:00:26;;;;;;;7.40;6.28;;;;;;;32.66;54.48;101177.06;8342366;28;20127;-60
2023/08/20 12:04:39;;;;;;;6.82;5.30;;;;;;;32.08;55.48;101185.53;8355878;27;20470;-60
2023/08/20 12:08:40;;;;;;;8.95;4.85;;;;;;;32.42;55.04;101186.97;8355649;28;20042;-60
2023/08/20 12:12:40;;;;;;;5.45;4.53;;;;;;;32.41;56.06;101178.84;8355359;27;20037;-60
2023/08/20 12:16:41;;;;;;;4.72;4.22;;;;;;;32.18;55.92;101168.81;8367815;27;20060;-60
2023/08/20 12:20:41;;;;;;;6.03;4.70;;;;;;;31.63;57.17;101159.84;8366414;27;20033;-61
2023/08/20 12:24:42;;;;;;;5.88;4.32;;;;;;;31.12;57.80;101163.09;8366079;27;20303;-60
2023/08/20 12:28:42;;;;;;;5.68;3.80;;;;;;;31.25;58.45;101160.75;8354755;28;20037;-60
2023/08/20 12:32:43;;;;;;;5.35;4.25;;;;;;;31.00;58.54;101154.84;8361560;28;20033;-60
2023/08/20 12:36:43;;;;;;;5.88;3.95;;;;;;;31.83;60.23;101146.94;8365013;28;20052;-60
2023/08/20 12:40:44;;;;;;;5.35;3.90;;;;;;;32.02;57.73;101153.81;8363909;28;20033;-61
2023/08/20 12:44:44;;;;;;;7.75;4.95;;;;;;;31.24;60.74;101145.09;8364176;28;20588;-60
2023/08/20 12:48:45;;;;;;;5.78;4.70;;;;;;;31.08;61.94;101148.81;8364375;28;20036;-61
2023/08/20 12:52:46;;;;;;;7.47;4.78;;;;;;;31.08;62.03;101145.16;8366388;28;20130;-60
2023/08/20 12:56:47;;;;;;;6.05;4.10;;;;;;;30.84;61.47;101140.91;8360464;28;20037;-61
2023/08/20 13:00:48;;;;;;;6.03;4.35;;;;;;;30.96;62.43;101141.66;8360476;28;20340;-60
2023/08/20 13:04:50;;;;;;;5.03;4.35;;;;;;;30.94;62.64;101135.47;8363156;28;20036;-60
2023/08/20 13:08:50;;;;;;;4.95;4.13;;;;;;;30.88;61.92;101133.69;8363372;28;20032;-60
2023/08/20 13:12:53;;;;;;;6.75;4.32;;;;;;;30.94;61.33;101138.25;8357331;28;20642;-60
2023/08/20 13:16:55;;;;;;;7.50;4.20;;;;;;;30.78;61.65;101128.00;8341181;28;20065;-62
2023/08/20 13:20:56;;;;;;;6.63;4.25;;;;;;;30.70;61.07;101134.00;8341173;28;20033;-62
2023/08/20 13:24:56;;;;;;;7.13;4.20;;;;;;;31.34;61.71;101133.22;8341751;28;20127;-62
2023/08/20 13:28:57;;;;;;;6.60;3.90;;;;;;;31.64;60.52;101141.94;8341480;28;20045;-62
2023/08/20 13:32:57;;;;;;;4.15;3.50;;;;;;;31.00;58.59;101143.66;8334962;28;20067;-62
2023/08/20 13:36:58;;;;;;;4.27;3.83;;;;;;;30.88;61.90;101130.91;8359681;28;20041;-62
2023/08/20 13:40:59;;;;;;;4.53;3.80;;;;;;;31.25;64.64;101135.59;8340831;28;20658;-61
2023/08/20 13:44:59;;;;;;;4.85;3.72;;;;;;;31.52;62.63;101142.09;8343437;28;20067;-62
2023/08/20 13:49:00;;;;;;;5.15;3.90;;;;;;;31.06;60.58;101133.38;8341919;28;20132;-62
2023/08/20 13:53:01;;;;;;;6.45;3.53;;;;;;;31.34;61.19;101133.22;8335290;28;20029;-62
2023/08/20 13:57:03;;;;;;;9.73;3.92;;;;;;;31.07;58.88;101133.13;8338865;28;20037;-61
2023/08/20 14:01:04;;;;;;;6.18;3.88;;;;;;;30.98;59.20;101128.28;8350048;28;20037;-62
2023/08/20 14:05:09;;;;;;;4.15;3.75;;;;;;;30.61;60.39;101127.16;8350951;28;20045;-61
2023/08/20 14:09:10;;;;;;;5.82;3.53;;;;;;;30.70;60.36;101132.03;8365693;28;20099;-60
2023/08/20 14:13:11;;;;;;;5.35;3.65;;;;;;;30.41;59.57;101130.50;8341037;28;20124;-60
2023/08/20 14:17:11;;;;;;;5.78;3.63;;;;;;;30.17;60.62;101121.44;8347101;28;20499;-59
2023/08/20 14:21:12;;;;;;;5.32;3.78;;;;;;;30.38;60.24;101117.06;8341260;28;20046;-60
2023/08/20 14:25:13;;;;;;;6.28;3.90;;;;;;;30.62;60.40;101120.47;8339983;28;20136;-59
2023/08/20 14:29:13;;;;;;;4.30;2.30;;;;;;;30.90;57.98;101120.34;8339717;28;20045;-60
2023/08/20 14:33:13;;;;;;;4.20;3.10;;;;;;;30.81;57.64;101121.88;8338179;28;20051;-60
2023/08/20 14:37:14;;;;;;;4.22;2.90;;;;;;;30.74;59.12;101104.47;8339892;28;20476;-61
2023/08/20 14:41:14;;;;;;;5.45;2.58;;;;;;;31.03;59.32;101108.75;8339503;28;20048;-61
2023/08/20 14:45:15;;;;;;;6.55;3.95;;;;;;;30.98;61.33;101111.50;8337723;28;20052;-60
2023/08/20 14:49:17;;;;;;;5.43;3.35;;;;;;;30.93;63.08;101109.50;8341808;28;20091;-62
2023/08/20 14:53:18;;;;;;;4.80;3.20;;;;;;;30.76;60.20;101091.13;8337231;28;20037;-62
2023/08/20 14:57:19;;;;;;;6.97;3.42;;;;;;;30.89;60.30;101101.91;8336575;28;20042;-62
2023/08/20 15:01:19;;;;;;;4.82;3.58;;;;;;;30.79;61.93;101093.38;8336720;28;20331;-63
2023/08/20 15:05:20;;;;;;;5.13;3.40;;;;;;;30.82;61.48;101090.03;8333448;28;20049;-63
2023/08/20 15:09:21;;;;;;;6.60;3.45;;;;;;;30.80;61.30;101092.28;8340294;28;20112;-63
2023/08/20 15:13:21;;;;;;;5.57;3.75;;;;;;;30.70;60.91;101097.69;8347385;28;20044;-63
2023/08/20 15:17:22;;;;;;;6.15;3.45;;;;;;;30.80;61.43;101095.94;8337145;28;20037;-63
2023/08/20 15:21:22;;;;;;;5.82;3.63;;;;;;;30.86;60.67;101103.25;8337154;28;20467;-63
2023/08/20 15:25:23;;;;;;;7.00;3.78;;;;;;;30.67;60.54;101095.44;8344488;28;20172;-63
2023/08/20 15:29:24;;;;;;;3.80;3.40;;;;;;;30.68;61.14;101088.72;8336359;28;20091;-62
2023/08/20 15:33:28;;;;;;;4.70;3.25;;;;;;;30.66;62.07;101091.78;8362915;28;20112;-59
2023/08/20 15:37:29;;;;;;;5.35;3.50;;;;;;;30.72;61.79;101093.53;8341733;28;20078;-62
2023/08/20 15:41:29;;;;;;;5.75;3.72;;;;;;;30.68;60.68;101088.72;8341405;28;20041;-62
2023/08/20 15:45:30;;;;;;;18.15;4.22;;;;;;;30.64;60.82;101081.97;8342579;28;20058;-61
2023/08/20 15:49:30;;;;;;;4.72;3.75;;;;;;;30.67;61.65;101087.06;8332682;28;20039;-63
2023/08/20 15:53:31;;;;;;;6.38;3.63;;;;;;;30.62;61.71;101092.56;8336448;28;20407;-63
2023/08/20 15:57:31;;;;;;;4.70;3.53;;;;;;;30.54;61.18;101098.56;8334284;28;20037;-62
2023/08/20 16:01:32;;;;;;;7.10;3.53;;;;;;;30.60;61.68;101089.16;8332439;28;20055;-63
2023/08/20 16:05:32;;;;;;;5.47;3.17;;;;;;;30.56;62.32;101085.19;8335554;28;20064;-62
2023/08/20 16:09:35;;;;;;;5.38;3.50;;;;;;;30.38;61.99;101083.56;8336922;28;20478;-63
2023/08/20 16:13:35;;;;;;;5.38;2.88;;;;;;;30.26;62.71;101086.47;8337047;28;20040;-63
2023/08/20 16:17:36;;;;;;;6.53;3.03;;;;;;;30.14;62.64;101071.72;8334799;28;20037;-62
2023/08/20 16:21:36;;;;;;;4.97;3.00;;;;;;;30.18;63.35;101069.25;8334917;28;20445;-63
2023/08/20 16:25:39;;;;;;;3.25;2.38;;;;;;;30.17;63.15;101076.78;8338504;28;20037;-62
2023/08/20 16:29:39;;;;;;;4.50;2.88;;;;;;;30.03;62.88;101086.59;8336908;28;20033;-63
2023/08/20 16:33:40;;;;;;;4.88;2.97;;;;;;;29.88;63.33;101082.69;8335503;28;20538;-62
2023/08/20 16:37:40;;;;;;;6.55;3.35;;;;;;;29.87;64.35;101081.88;8333562;28;20055;-62
2023/08/20 16:41:41;;;;;;;4.03;2.97;;;;;;;29.76;63.54;101080.00;8332641;28;20084;-62
2023/08/20 16:45:41;;;;;;;4.65;3.10;;;;;;;29.54;64.68;101076.22;8335005;28;20052;-62
2023/08/20 16:49:43;;;;;;;4.15;2.65;;;;;;;29.50;65.13;101088.13;8339123;28;20069;-63
2023/08/20 16:53:43;;;;;;;5.50;2.88;;;;;;;29.40;65.55;101085.16;8342120;28;20055;-61
2023/08/20 16:57:44;;;;;;;5.30;2.72;;;;;;;29.20;66.69;101080.03;8351990;28;20041;-62
2023/08/20 17:01:46;;;;;;;3.78;2.92;;;;;;;29.10;67.01;101085.41;8336506;28;20045;-62
2023/08/20 17:05:47;;;;;;;6.20;2.85;;;;;;;29.05;67.08;101087.22;8339683;28;20471;-62
2023/08/20 17:09:47;;;;;;;4.43;2.92;;;;;;;28.99;67.49;101089.03;8340860;28;20414;-60
2023/08/20 17:13:48;;;;;;;8.63;2.80;;;;;;;28.88;67.96;101087.16;8341777;28;20482;-59
2023/08/20 17:17:48;;;;;;;11.93;3.00;;;;;;;28.83;68.37;101089.81;8340657;28;20442;-61
2023/08/20 17:21:51;;;;;;;10.77;3.80;;;;;;;28.99;71.52;101074.25;8341283;28;20045;-59
2023/08/20 17:25:58;;;;;;;9.35;3.05;;;;;;;28.84;68.39;101085.09;8332210;28;20037;-60
2023/08/20 17:30:00;;;;;;;6.57;2.70;;;;;;;28.76;68.83;101094.69;8341495;28;20037;-60
2023/08/20 17:34:04;;;;;;;5.18;2.85;;;;;;;28.64;68.14;101089.13;8334501;28;20037;-60
2023/08/20 17:38:05;;;;;;;;;;;;;;;28.62;66.79;101090.47;8340867;28;20487;-60
2023/08/20 17:42:05;;;;;;;7.45;2.92;;;;;;;28.54;66.19;101096.41;8371706;28;20294;-60
2023/08/20 17:46:10;;;;;;;8.32;2.97;;;;;;;28.48;67.11;101095.44;8338369;28;20049;-60
2023/08/20 17:50:10;;;;;;;4.75;2.55;;;;;;;28.46;66.72;101089.28;8334021;28;20083;-60
2023/08/20 17:54:11;;;;;;;6.75;2.63;;;;;;;28.41;66.51;101097.47;8341509;28;20033;-60
2023/08/20 17:58:12;;;;;;;7.40;2.90;;;;;;;28.32;67.41;101086.94;8337820;28;20046;-62
2023/08/20 18:02:12;;;;;;;5.10;2.75;;;;;;;28.26;67.39;101087.91;8352468;28;20036;-62
2023/08/20 18:06:13;;;;;;;4.70;2.30;;;;;;;28.17;68.03;101092.16;8324005;28;20044;-61
2023/08/20 18:10:13;;;;;;;6.18;2.70;;;;;;;28.06;68.37;101088.28;8340686;28;20451;-62
2023/08/20 18:14:14;;;;;;;4.28;2.83;;;;;;;27.95;68.65;101091.06;8339566;28;20041;-61
2023/08/20 18:18:14;;;;;;;7.00;2.40;;;;;;;27.90;69.30;101082.59;8339544;28;20040;-62
2023/08/20 18:22:14;;;;;;;5.88;2.53;;;;;;;27.85;69.09;101090.78;8340933;28;20041;-62
2023/08/20 18:26:16;;;;;;;4.07;2.53;;;;;;;27.77;69.07;101096.66;8338218;28;20053;-62
2023/08/20 18:30:17;;;;;;;6.00;2.70;;;;;;;27.65;69.25;101079.13;8339450;28;20414;-63
2023/08/20 18:34:17;;;;;;;5.45;3.25;;;;;;;27.52;70.45;101090.44;8327205;28;20052;-62